createdAt,value
2022-10-26T00:01:12.747Z,12.17
2022-10-26T00:03:42.950Z,11.87
2022-10-26T00:06:12.695Z,11.93
2022-10-26T00:08:41.067Z,12.43
2022-10-26T00:11:09.198Z,13.27
2022-10-26T00:13:39.458Z,12.87
2022-10-26T00:16:10.814Z,13.37
2022-10-26T00:18:38.902Z,13.30
2022-10-26T00:21:08.157Z,12.70
2022-10-26T00:23:35.987Z,13.20
2022-10-26T00:26:04.237Z,13.17
2022-10-26T00:28:32.680Z,13.57
2022-10-26T00:31:03.498Z,14.27
2022-10-26T00:33:31.392Z,13.30
2022-10-26T00:35:59.744Z,14.03
2022-10-26T00:38:27.578Z,13.43
2022-10-26T00:40:55.297Z,13.97
2022-10-26T00:43:37.108Z,13.60
2022-10-26T00:46:09.258Z,14.37
2022-10-26T00:48:39.356Z,14.07
2022-10-26T00:51:11.634Z,15.43
2022-10-26T00:53:39.942Z,14.27
2022-10-26T00:56:09.620Z,14.10
2022-10-26T00:58:37.929Z,14.87
2022-10-26T01:01:07.082Z,15.00
2022-10-26T01:03:36.913Z,14.73
2022-10-26T01:06:06.470Z,14.67
2022-10-26T01:08:35.230Z,14.63
2022-10-26T01:11:03.052Z,14.50
2022-10-26T01:13:35.821Z,14.50
2022-10-26T01:16:19.028Z,14.73
2022-10-26T01:19:00.426Z,14.10
2022-10-26T01:21:49.129Z,13.43
2022-10-26T01:24:43.572Z,14.50
2022-10-26T01:27:24.660Z,14.17
2022-10-26T01:30:13.122Z,14.67
2022-10-26T01:32:51.239Z,14.50
2022-10-26T01:35:23.002Z,13.73
2022-10-26T01:37:57.604Z,13.50
2022-10-26T01:40:30.347Z,12.47
2022-10-26T01:43:02.624Z,12.73
2022-10-26T01:45:33.269Z,10.60
2022-10-26T01:48:04.106Z,11.43
2022-10-26T01:50:33.292Z,11.47
2022-10-26T01:53:01.048Z,10.20
2022-10-26T01:55:46.589Z,10.07
2022-10-26T01:58:41.309Z,9.67
2022-10-26T02:01:26.087Z,10.07
2022-10-26T02:04:03.792Z,10.27
2022-10-26T02:06:42.242Z,9.27
2022-10-26T02:09:20.305Z,9.63
2022-10-26T02:11:52.732Z,9.53
2022-10-26T02:14:25.856Z,9.90
2022-10-26T02:16:58.170Z,9.10
2022-10-26T02:19:39.225Z,9.47
2022-10-26T02:22:15.752Z,9.47
2022-10-26T02:24:44.957Z,9.50
2022-10-26T02:27:21.173Z,9.47
2022-10-26T02:29:52.069Z,10.07
2022-10-26T02:32:21.577Z,9.30
2022-10-26T02:34:52.639Z,9.40
2022-10-26T02:37:22.751Z,9.67
2022-10-26T02:39:52.704Z,9.47
2022-10-26T02:42:21.365Z,10.43
2022-10-26T02:44:52.636Z,9.53
2022-10-26T02:47:21.156Z,9.30
2022-10-26T02:49:50.444Z,10.23
2022-10-26T02:52:24.360Z,9.73
2022-10-26T02:54:57.958Z,8.97
2022-10-26T02:57:30.805Z,9.13
2022-10-26T02:59:59.749Z,8.80
2022-10-26T03:02:30.155Z,9.67
2022-10-26T03:05:09.532Z,8.63
2022-10-26T03:07:37.258Z,9.43
2022-10-26T03:10:05.533Z,10.07
2022-10-26T03:12:33.209Z,10.40
2022-10-26T03:15:00.917Z,8.97
2022-10-26T03:17:28.921Z,8.63
2022-10-26T03:19:56.727Z,9.87
2022-10-26T03:22:25.773Z,9.47
2022-10-26T03:24:53.654Z,9.30
2022-10-26T03:27:21.382Z,8.50
2022-10-26T03:29:49.067Z,9.97
2022-10-26T03:32:16.820Z,9.07
2022-10-26T03:34:44.515Z,9.60
2022-10-26T03:37:12.230Z,8.80
2022-10-26T03:39:41.307Z,8.60
2022-10-26T03:42:08.992Z,10.70
2022-10-26T03:44:36.690Z,10.20
2022-10-26T03:47:04.848Z,8.47
2022-10-26T03:49:32.511Z,8.67
2022-10-26T03:52:00.232Z,9.07
2022-10-26T03:54:28.191Z,8.17
2022-10-26T03:56:57.225Z,8.47
2022-10-26T03:59:24.921Z,8.50
2022-10-26T04:01:55.343Z,9.20
2022-10-26T04:04:25.532Z,8.93
2022-10-26T04:06:53.289Z,8.80
2022-10-26T04:09:21.028Z,8.73
2022-10-26T04:11:48.767Z,8.53
2022-10-26T04:14:17.908Z,8.43
2022-10-26T04:16:45.628Z,8.97
2022-10-26T04:19:13.358Z,8.77
2022-10-26T04:21:41.105Z,9.23
2022-10-26T04:24:08.978Z,8.60
2022-10-26T04:26:36.694Z,9.30
2022-10-26T04:29:07.231Z,9.60
2022-10-26T04:31:36.319Z,9.00
2022-10-26T04:34:04.113Z,9.27
2022-10-26T04:36:32.263Z,9.23
2022-10-26T04:38:59.927Z,9.67
2022-10-26T04:41:27.644Z,9.40
2022-10-26T04:43:55.332Z,9.27
2022-10-26T04:46:23.048Z,8.53
2022-10-26T04:48:52.072Z,9.10
2022-10-26T04:51:19.787Z,8.63
2022-10-26T04:53:47.495Z,8.60
2022-10-26T04:56:15.213Z,9.07
2022-10-26T04:58:42.894Z,8.60
2022-10-26T05:01:10.611Z,8.27
2022-10-26T05:03:38.345Z,9.73
2022-10-26T05:06:07.813Z,9.43
2022-10-26T05:08:35.519Z,9.27
2022-10-26T05:11:03.216Z,7.77
2022-10-26T05:13:30.926Z,8.73
2022-10-26T05:15:58.619Z,9.60
2022-10-26T05:18:26.493Z,8.73
2022-10-26T05:20:54.770Z,8.77
2022-10-26T05:23:24.459Z,7.93
2022-10-26T05:25:52.158Z,8.77
2022-10-26T05:28:19.889Z,8.20
2022-10-26T05:30:47.630Z,9.40
2022-10-26T05:33:16.355Z,8.77
2022-10-26T05:35:44.144Z,9.37
2022-10-26T05:38:16.365Z,8.67
2022-10-26T05:40:52.737Z,8.67
2022-10-26T05:43:21.557Z,9.10
2022-10-26T05:45:51.130Z,9.47
2022-10-26T05:48:18.960Z,9.60
2022-10-26T05:50:46.700Z,9.63
2022-10-26T05:53:14.520Z,10.03
2022-10-26T05:55:43.204Z,9.47
2022-10-26T05:58:14.501Z,8.80
2022-10-26T06:00:56.319Z,9.70
2022-10-26T06:03:36.090Z,10.00
2022-10-26T06:06:06.681Z,9.03
2022-10-26T06:08:35.701Z,10.00
2022-10-26T06:11:03.944Z,9.10
2022-10-26T06:13:33.754Z,10.27
2022-10-26T06:16:22.181Z,9.80
2022-10-26T06:19:02.101Z,10.50
2022-10-26T06:21:48.653Z,9.27
2022-10-26T06:24:25.746Z,10.27
2022-10-26T06:27:00.172Z,9.97
2022-10-26T06:29:45.009Z,9.87
2022-10-26T06:32:13.167Z,10.00
2022-10-26T06:34:46.434Z,10.13
2022-10-26T06:37:14.715Z,9.80
2022-10-26T06:39:48.907Z,10.30
2022-10-26T06:42:20.542Z,9.87
2022-10-26T06:44:50.417Z,10.30
2022-10-26T06:47:27.047Z,9.17
2022-10-26T06:50:03.875Z,10.17
2022-10-26T06:52:37.872Z,9.57
2022-10-26T06:55:06.507Z,10.40
2022-10-26T06:57:36.851Z,10.17
2022-10-26T07:00:19.766Z,10.17
2022-10-26T07:02:48.492Z,11.43
2022-10-26T07:05:16.593Z,9.90
2022-10-26T07:07:46.012Z,10.33
2022-10-26T07:10:15.752Z,10.30
2022-10-26T07:12:43.487Z,11.47
2022-10-26T07:15:12.823Z,10.33
2022-10-26T07:17:44.978Z,10.60
2022-10-26T07:20:13.361Z,10.63
2022-10-26T07:22:42.763Z,10.93
2022-10-26T07:25:12.254Z,12.07
2022-10-26T07:27:40.102Z,11.53
2022-10-26T07:30:08.901Z,11.33
2022-10-26T07:32:37.988Z,10.97
2022-10-26T07:35:06.500Z,11.53
2022-10-26T07:37:34.346Z,10.80
2022-10-26T07:40:05.682Z,11.30
2022-10-26T07:42:34.673Z,12.10
2022-10-26T07:45:02.364Z,10.90
2022-10-26T07:47:30.022Z,12.33
2022-10-26T07:49:59.072Z,11.60
2022-10-26T07:52:26.778Z,11.63
2022-10-26T07:54:54.449Z,11.27
2022-10-26T07:57:22.143Z,9.13
2022-10-26T07:59:49.945Z,8.50
2022-10-26T08:02:17.644Z,8.87
2022-10-26T08:04:45.398Z,8.63
2022-10-26T08:07:14.482Z,7.50
2022-10-26T08:09:42.171Z,7.80
2022-10-26T08:12:09.884Z,7.40
2022-10-26T08:14:37.574Z,7.00
2022-10-26T08:17:05.261Z,7.87
2022-10-26T08:19:32.927Z,6.33
2022-10-26T08:22:00.711Z,7.07
2022-10-26T08:24:30.243Z,6.60
2022-10-26T08:26:57.893Z,6.43
2022-10-26T08:29:25.515Z,9.27
2022-10-26T08:31:53.257Z,10.90
2022-10-26T08:34:20.888Z,7.47
2022-10-26T08:36:50.299Z,7.07
2022-10-26T08:39:18.043Z,8.80
2022-10-26T08:41:52.793Z,8.20
2022-10-26T08:44:26.979Z,6.73
2022-10-26T08:46:59.268Z,7.10
2022-10-26T08:49:30.735Z,7.10
2022-10-26T08:52:02.532Z,8.23
2022-10-26T08:54:39.156Z,7.53
2022-10-26T08:57:17.215Z,7.23
2022-10-26T08:59:50.361Z,7.10
2022-10-26T09:02:19.151Z,7.23
2022-10-26T09:04:47.147Z,7.30
2022-10-26T09:07:26.836Z,7.87
2022-10-26T09:10:02.385Z,7.60
2022-10-26T09:12:41.907Z,7.50
2022-10-26T09:15:18.857Z,7.10
2022-10-26T09:17:57.358Z,7.63
2022-10-26T09:20:50.577Z,6.90
2022-10-26T09:23:32.703Z,7.70
2022-10-26T09:26:02.225Z,7.40
2022-10-26T09:28:35.490Z,7.57
2022-10-26T09:31:05.144Z,7.20
2022-10-26T09:33:38.500Z,7.73
2022-10-26T09:36:13.201Z,6.97
2022-10-26T09:38:48.468Z,7.30
2022-10-26T09:41:25.140Z,6.97
2022-10-26T09:43:58.798Z,7.57
2022-10-26T09:46:32.593Z,7.70
2022-10-26T09:49:05.754Z,8.00
2022-10-26T09:51:34.271Z,7.63
2022-10-26T09:54:03.245Z,7.70
2022-10-26T09:56:32.740Z,8.50
2022-10-26T09:59:06.479Z,7.00
2022-10-26T10:01:40.083Z,7.47
2022-10-26T10:04:20.209Z,7.50
2022-10-26T10:09:30.036Z,7.33
2022-10-26T10:12:01.502Z,8.80
2022-10-26T10:14:38.887Z,6.97
2022-10-26T10:17:21.063Z,7.17
2022-10-26T10:19:49.738Z,7.37
2022-10-26T10:22:22.860Z,7.10
2022-10-26T10:24:56.928Z,7.03
2022-10-26T10:27:25.304Z,7.10
2022-10-26T10:29:59.939Z,7.27
2022-10-26T10:32:35.796Z,7.33
2022-10-26T10:35:24.999Z,6.97
2022-10-26T10:37:53.667Z,6.83
2022-10-26T10:40:23.916Z,6.60
2022-10-26T10:42:53.857Z,7.53
2022-10-26T10:45:25.959Z,6.30
2022-10-26T10:48:02.406Z,6.13
2022-10-26T10:50:32.249Z,6.60
2022-10-26T10:53:19.397Z,6.87
2022-10-26T10:56:04.386Z,6.80
2022-10-26T10:58:43.353Z,6.23
2022-10-26T11:01:16.540Z,6.10
2022-10-26T11:03:58.175Z,6.17
2022-10-26T11:06:28.800Z,6.70
2022-10-26T11:09:03.107Z,6.00
2022-10-26T11:11:38.654Z,6.03
2022-10-26T11:14:13.151Z,5.77
2022-10-26T11:16:46.398Z,6.20
2022-10-26T11:19:23.415Z,5.67
2022-10-26T11:21:54.587Z,5.70
2022-10-26T11:24:27.855Z,5.63
2022-10-26T11:27:01.128Z,5.80
2022-10-26T11:29:39.805Z,5.20
2022-10-26T11:32:16.767Z,5.53
2022-10-26T11:34:53.014Z,5.00
2022-10-26T11:37:26.711Z,5.27
2022-10-26T11:40:03.852Z,5.13
2022-10-26T11:42:37.405Z,5.00
2022-10-26T11:45:14.289Z,5.17
2022-10-26T11:47:48.043Z,4.23
2022-10-26T11:50:20.990Z,3.90
2022-10-26T11:52:53.586Z,4.80
2022-10-26T11:55:23.489Z,4.30
2022-10-26T11:57:57.406Z,4.37
2022-10-26T12:00:25.719Z,4.80
2022-10-26T12:02:59.068Z,3.90
2022-10-26T12:05:34.717Z,3.90
2022-10-26T12:08:07.673Z,4.27
2022-10-26T12:10:39.079Z,4.27
2022-10-26T12:13:20.693Z,4.27
2022-10-26T12:16:02.949Z,4.57
2022-10-26T12:18:56.568Z,3.87
2022-10-26T12:21:28.565Z,4.13
2022-10-26T12:24:03.412Z,4.10
2022-10-26T12:26:55.607Z,4.17
2022-10-26T12:29:38.151Z,3.63
2022-10-26T12:32:50.733Z,4.00
2022-10-26T12:35:47.261Z,4.30
2022-10-26T12:38:58.307Z,3.40
2022-10-26T12:41:27.519Z,3.10
2022-10-26T12:44:25.993Z,3.27
2022-10-26T12:46:53.945Z,2.90
2022-10-26T12:49:54.489Z,2.97
2022-10-26T12:52:43.939Z,2.80
2022-10-26T12:55:31.730Z,3.30
2022-10-26T12:58:14.950Z,2.93
2022-10-26T13:00:49.233Z,3.17
2022-10-26T13:03:27.646Z,2.73
2022-10-26T13:06:25.467Z,2.60
2022-10-26T13:09:00.119Z,2.80
2022-10-26T13:11:33.419Z,2.67
2022-10-26T13:14:04.181Z,2.60
2022-10-26T13:16:32.192Z,2.50
2022-10-26T13:19:01.156Z,2.70
2022-10-26T13:21:29.409Z,3.00
2022-10-26T13:24:05.249Z,2.80
2022-10-26T13:26:53.817Z,2.40
2022-10-26T13:29:31.083Z,2.40
2022-10-26T13:32:01.843Z,2.33
2022-10-26T13:34:32.507Z,2.40
2022-10-26T13:37:15.262Z,2.13
2022-10-26T13:39:45.024Z,2.10
2022-10-26T13:42:17.496Z,2.57
2022-10-26T13:44:53.862Z,2.20
2022-10-26T13:47:28.584Z,3.77
2022-10-26T13:50:01.180Z,2.40
2022-10-26T13:52:33.954Z,4.50
2022-10-26T13:55:06.751Z,2.10
2022-10-26T13:57:38.812Z,2.43
2022-10-26T14:00:18.470Z,1.67
2022-10-26T14:02:46.706Z,2.23
2022-10-26T14:05:16.911Z,2.10
2022-10-26T14:07:48.750Z,2.07
2022-10-26T14:10:29.461Z,2.30
2022-10-26T14:12:58.246Z,2.07
2022-10-26T14:15:31.235Z,1.93
2022-10-26T14:18:01.091Z,2.30
2022-10-26T14:20:31.106Z,2.10
2022-10-26T14:22:58.970Z,1.90
2022-10-26T14:25:41.770Z,2.27
2022-10-26T14:28:23.417Z,2.30
2022-10-26T14:30:52.899Z,2.27
2022-10-26T14:33:25.486Z,2.10
2022-10-26T14:35:53.594Z,2.10
2022-10-26T14:38:26.481Z,2.47
2022-10-26T14:40:57.270Z,2.27
2022-10-26T14:43:26.957Z,2.17
2022-10-26T14:45:57.299Z,2.13
2022-10-26T14:48:30.099Z,2.00
2022-10-26T14:51:02.531Z,2.10
2022-10-26T14:53:35.919Z,1.87
2022-10-26T14:56:05.715Z,2.20
2022-10-26T14:58:35.276Z,2.00
2022-10-26T15:01:35.809Z,2.43
2022-10-26T15:04:06.754Z,2.50
2022-10-26T15:06:45.050Z,2.27
2022-10-26T15:09:32.356Z,2.17
2022-10-26T15:12:02.825Z,2.60
2022-10-26T15:14:30.669Z,2.20
2022-10-26T15:17:00.966Z,2.00
2022-10-26T15:19:29.350Z,1.80
2022-10-26T15:21:57.185Z,2.40
2022-10-26T15:24:38.483Z,2.20
2022-10-26T15:27:16.053Z,2.17
2022-10-26T15:29:46.029Z,2.30
2022-10-26T15:32:28.250Z,2.40
2022-10-26T15:35:26.732Z,2.00
2022-10-26T15:37:56.338Z,2.20
2022-10-26T15:43:04.717Z,2.23
2022-10-26T15:45:35.029Z,2.47
2022-10-26T15:48:22.662Z,2.90
2022-10-26T15:50:50.600Z,2.47
2022-10-26T15:53:21.604Z,2.67
2022-10-26T15:55:50.288Z,2.60
2022-10-26T15:58:18.481Z,2.70
2022-10-26T16:00:46.594Z,2.60
2022-10-26T16:03:18.780Z,2.57
2022-10-26T16:05:46.824Z,2.80
2022-10-26T16:08:18.216Z,2.67
2022-10-26T16:10:47.346Z,3.50
2022-10-26T16:13:15.926Z,3.50
2022-10-26T16:15:44.703Z,3.60
2022-10-26T16:18:15.281Z,3.40
2022-10-26T16:20:47.977Z,3.57
2022-10-26T16:23:16.024Z,3.10
2022-10-26T16:25:45.919Z,3.27
2022-10-26T16:28:16.626Z,3.30
2022-10-26T16:30:44.610Z,3.67
2022-10-26T16:33:12.543Z,3.90
2022-10-26T16:35:41.879Z,3.40
2022-10-26T16:38:09.819Z,3.57
2022-10-26T16:40:37.639Z,4.33
2022-10-26T16:43:07.167Z,3.73
2022-10-26T16:45:34.887Z,4.10
2022-10-26T16:48:09.557Z,3.80
2022-10-26T16:50:37.390Z,3.73
2022-10-26T16:53:06.444Z,3.70
2022-10-26T16:55:34.156Z,3.70
2022-10-26T16:58:01.972Z,3.50
2022-10-26T17:00:29.750Z,3.30
2022-10-26T17:02:57.702Z,4.90
2022-10-26T17:05:25.504Z,3.60
2022-10-26T17:07:53.481Z,3.00
2022-10-26T17:10:22.756Z,2.90
2022-10-26T17:12:50.748Z,3.00
2022-10-26T17:15:20.144Z,2.87
2022-10-26T17:17:48.826Z,3.03
2022-10-26T17:20:17.081Z,2.80
2022-10-26T17:22:44.824Z,2.63
2022-10-26T17:25:12.550Z,2.90
2022-10-26T17:27:46.271Z,2.90
2022-10-26T17:30:18.380Z,3.03
2022-10-26T17:32:47.705Z,2.80
2022-10-26T17:35:16.962Z,2.60
2022-10-26T17:37:44.908Z,3.10
2022-10-26T17:40:13.735Z,2.73
2022-10-26T17:42:43.001Z,3.20
2022-10-26T17:45:11.249Z,2.70
2022-10-26T17:47:40.454Z,3.13
2022-10-26T17:50:09.348Z,2.67
2022-10-26T17:52:37.175Z,2.80
2022-10-26T17:55:05.589Z,2.83
2022-10-26T17:57:36.781Z,2.83
2022-10-26T18:00:07.148Z,2.80
2022-10-26T18:02:37.464Z,3.00
2022-10-26T18:05:06.897Z,2.83
2022-10-26T18:07:35.843Z,2.90
2022-10-26T18:10:14.075Z,2.93
2022-10-26T18:12:52.774Z,2.80
2022-10-26T18:15:23.881Z,3.00
2022-10-26T18:17:58.234Z,3.10
2022-10-26T18:20:27.791Z,3.03
2022-10-26T18:22:56.588Z,3.10
2022-10-26T18:25:24.337Z,3.17
2022-10-26T18:27:52.149Z,2.80
2022-10-26T18:30:19.935Z,3.20
2022-10-26T18:32:49.845Z,2.90
2022-10-26T18:35:20.643Z,2.90
2022-10-26T18:37:48.612Z,3.30
2022-10-26T18:40:19.865Z,3.40
2022-10-26T18:42:50.344Z,3.10
2022-10-26T18:45:18.236Z,3.63
2022-10-26T18:47:45.967Z,3.20
2022-10-26T18:50:15.463Z,3.10
2022-10-26T18:52:43.257Z,2.87
2022-10-26T18:55:11.260Z,2.63
2022-10-26T18:57:39.096Z,3.10
2022-10-26T19:00:08.016Z,2.70
2022-10-26T19:02:35.721Z,2.90
2022-10-26T19:05:03.556Z,2.70
2022-10-26T19:07:32.712Z,2.73
2022-10-26T19:10:00.809Z,2.97
2022-10-26T19:12:28.626Z,2.70
2022-10-26T19:14:56.332Z,2.67
2022-10-26T19:17:24.114Z,3.00
2022-10-26T19:19:51.839Z,3.30
2022-10-26T19:22:22.585Z,2.90
2022-10-26T19:24:53.498Z,3.77
2022-10-26T19:27:21.314Z,3.50
2022-10-26T19:29:49.067Z,3.40
2022-10-26T19:32:16.872Z,3.53
2022-10-26T19:34:44.599Z,3.90
2022-10-26T19:37:12.387Z,4.03
2022-10-26T19:39:40.110Z,3.70
2022-10-26T19:42:09.297Z,3.60
2022-10-26T19:44:37.067Z,4.10
2022-10-26T19:47:05.405Z,4.20
2022-10-26T19:49:36.795Z,4.13
2022-10-26T19:52:04.794Z,3.90
2022-10-26T19:54:36.226Z,3.60
2022-10-26T19:57:04.154Z,4.00
2022-10-26T19:59:35.345Z,3.97
2022-10-26T20:02:03.073Z,4.27
2022-10-26T20:04:36.701Z,4.20
2022-10-26T20:07:04.640Z,4.03
2022-10-26T20:09:32.748Z,4.30
2022-10-26T20:12:00.514Z,4.40
2022-10-26T20:14:28.187Z,4.50
2022-10-26T20:16:57.407Z,4.67
2022-10-26T20:19:25.144Z,4.10
2022-10-26T20:21:53.134Z,4.67
2022-10-26T20:24:20.860Z,4.57
2022-10-26T20:26:51.629Z,4.60
2022-10-26T20:29:19.504Z,4.47
2022-10-26T20:31:47.259Z,4.60
2022-10-26T20:34:19.075Z,4.57
2022-10-26T20:36:48.646Z,4.60
2022-10-26T20:39:16.977Z,4.33
2022-10-26T20:41:45.868Z,4.67
2022-10-26T20:44:21.181Z,4.60
2022-10-26T20:46:49.524Z,4.80
2022-10-26T20:49:19.371Z,5.13
2022-10-26T20:52:15.656Z,5.10
2022-10-26T20:54:48.089Z,4.73
2022-10-26T20:57:20.299Z,4.43
2022-10-26T20:59:51.027Z,4.10
2022-10-26T21:02:18.819Z,4.53
2022-10-26T21:04:47.965Z,4.17
2022-10-26T21:07:15.929Z,4.70
2022-10-26T21:09:43.821Z,4.20
2022-10-26T21:12:11.984Z,4.80
2022-10-26T21:14:40.881Z,4.80
2022-10-26T21:17:08.804Z,4.70
2022-10-26T21:19:36.778Z,4.83
2022-10-26T21:22:06.374Z,4.80
2022-10-26T21:27:08.832Z,5.00
2022-10-26T21:29:36.509Z,4.93
2022-10-26T21:32:04.424Z,4.97
2022-10-26T21:34:32.783Z,4.70
2022-10-26T21:37:00.575Z,5.40
2022-10-26T21:39:32.079Z,5.43
2022-10-26T21:41:59.814Z,4.77
2022-10-26T21:44:42.790Z,5.50
2022-10-26T21:47:11.346Z,5.53
2022-10-26T21:49:39.377Z,5.80
2022-10-26T21:52:07.655Z,5.47
2022-10-26T21:54:36.972Z,5.03
2022-10-26T21:57:04.777Z,5.30
2022-10-26T21:59:32.469Z,5.97
2022-10-26T22:02:00.405Z,5.67
2022-10-26T22:04:28.324Z,5.40
2022-10-26T22:06:56.045Z,5.50
2022-10-26T22:09:24.148Z,5.50
2022-10-26T22:11:53.284Z,5.43
2022-10-26T22:14:21.479Z,5.27
2022-10-26T22:16:49.203Z,5.40
2022-10-26T22:19:17.037Z,5.63
2022-10-26T22:21:44.735Z,4.90
2022-10-26T22:24:12.623Z,4.90
2022-10-26T22:26:40.330Z,5.00
2022-10-26T22:29:10.340Z,5.10
2022-10-26T22:31:40.384Z,5.70
2022-10-26T22:34:14.114Z,5.40
2022-10-26T22:36:42.096Z,6.50
2022-10-26T22:39:09.762Z,6.03
2022-10-26T22:41:37.484Z,5.67
2022-10-26T22:44:05.449Z,5.70
2022-10-26T22:46:34.556Z,5.17
2022-10-26T22:49:03.684Z,6.00
2022-10-26T22:51:33.524Z,6.13
2022-10-26T22:54:03.090Z,5.90
2022-10-26T22:56:32.761Z,5.93
2022-10-26T22:59:00.515Z,5.33
2022-10-26T23:01:32.375Z,5.73
2022-10-26T23:04:01.703Z,5.60
2022-10-26T23:06:31.455Z,5.53
2022-10-26T23:08:59.910Z,6.13
2022-10-26T23:11:34.010Z,6.40
2022-10-26T23:14:03.778Z,5.67
2022-10-26T23:16:32.056Z,5.73
2022-10-26T23:19:01.280Z,5.57
2022-10-26T23:21:29.094Z,5.27
2022-10-26T23:23:57.419Z,5.30
2022-10-26T23:26:25.222Z,5.60
2022-10-26T23:28:52.934Z,5.53
2022-10-26T23:31:22.657Z,4.97
2022-10-26T23:33:51.883Z,5.37
2022-10-26T23:36:21.528Z,5.63
2022-10-26T23:38:49.725Z,5.83
2022-10-26T23:41:17.496Z,5.50
2022-10-26T23:43:45.374Z,5.53
2022-10-26T23:46:13.171Z,5.97
2022-10-26T23:48:40.896Z,6.10
2022-10-26T23:51:08.682Z,5.97
2022-10-26T23:53:40.073Z,5.97
2022-10-26T23:56:08.338Z,5.10
2022-10-26T23:58:36.044Z,5.83
